Terminal Aerodrome Forecast
Issued by NWS

Home | Current Version | Previous Version | Text Only | Print | Product List | Glossary On
Versions: 1 2 3 4 5 6 7 8 9 10 11 12 13 14 15 16 17
000
FTUS45 KRIW 251900 AAA
TAFRKS
TAF AMD
KRKS 251940Z 2520/2618 27014KT P6SM BKN150
     FM252300 20006KT P6SM VCSH SCT050 BKN100
     FM260200 12010KT P6SM VCSH SCT030 BKN050
     FM260900 14011KT P6SM VCSH SCT010 BKN015=

USA.gov is the U.S. government's official web portal to all federal, state and local government web resources and services.